Time;durP1;ratioP1;P1;durP2;ratioP2;P2;SDS_P1;SDS_P2;PMS_P1;PMS_P2;Temp;Humidity;BMP_temperature;BMP_pressure;BME280_temperature;BME280_humidity;BME280_pressure;Samples;Min_cycle;Max_cycle;Signal;HPM_P1;HPM_P2
2021/05/13 00:00:11;;;;;;;6.65;1.90;;;;;;;18.56;40.77;99185.52;1586283;89;21147;-82
2021/05/13 00:02:38;;;;;;;3.22;1.60;;;;;;;18.48;41.12;99190.69;1606972;88;21260;-81
2021/05/13 00:05:05;;;;;;;6.62;2.17;;;;;;;18.49;41.13;99190.19;1606775;87;21008;-82
2021/05/13 00:07:31;;;;;;;6.62;1.77;;;;;;;18.40;41.37;99186.23;1606659;88;21663;-80
2021/05/13 00:09:57;;;;;;;3.50;1.52;;;;;;;18.44;41.33;99183.36;1587088;89;21003;-82
2021/05/13 00:12:39;;;;;;;4.05;1.67;;;;;;;18.37;41.72;99188.03;1586684;88;21046;-83
2021/05/13 00:15:14;;;;;;;2.65;1.50;;;;;;;18.35;41.74;99190.09;1605820;88;21032;-81
2021/05/13 00:17:44;;;;;;;3.37;1.70;;;;;;;18.34;41.79;99183.14;1606384;87;21075;-82
2021/05/13 00:20:13;;;;;;;7.90;1.67;;;;;;;18.32;41.91;99183.88;1607853;87;21087;-80
2021/05/13 00:22:39;;;;;;;4.95;1.60;;;;;;;18.26;42.15;99187.77;1605551;87;21214;-80
2021/05/13 00:25:08;;;;;;;3.85;1.60;;;;;;;18.19;42.30;99180.38;1605595;88;21146;-80
2021/05/13 00:27:36;;;;;;;3.85;1.50;;;;;;;18.19;42.28;99183.05;1606348;88;21255;-80
2021/05/13 00:30:07;;;;;;;5.15;1.65;;;;;;;18.11;42.52;99180.71;1608042;87;21161;-81
2021/05/13 00:32:36;;;;;;;7.62;1.52;;;;;;;18.05;42.88;99188.31;1609770;87;21192;-82
2021/05/13 00:35:10;;;;;;;5.70;1.92;;;;;;;17.97;43.12;99189.45;1604620;87;21192;-83
2021/05/13 00:37:39;;;;;;;6.80;1.72;;;;;;;18.04;42.82;99188.03;1599280;88;21154;-82
2021/05/13 00:40:10;;;;;;;4.12;1.55;;;;;;;18.03;43.00;99183.72;1596943;88;21157;-82
2021/05/13 00:42:37;;;;;;;5.28;1.80;;;;;;;18.00;43.12;99180.98;1602762;87;21605;-81
2021/05/13 00:45:09;;;;;;;4.62;1.65;;;;;;;17.93;43.18;99170.41;1597879;88;21580;-82
2021/05/13 00:47:43;;;;;;;3.62;1.60;;;;;;;17.94;43.34;99172.54;1598514;88;21130;-82
2021/05/13 00:50:05;;;;;;;4.00;1.82;;;;;;;17.97;43.15;99170.75;1596523;88;21123;-82
2021/05/13 00:52:34;;;;;;;4.87;1.50;;;;;;;17.97;43.22;99174.76;1598709;88;21311;-82
2021/05/13 00:55:01;;;;;;;8.78;1.80;;;;;;;17.87;43.54;99175.29;1597705;88;21172;-82
2021/05/13 00:57:28;;;;;;;4.08;1.87;;;;;;;17.84;43.48;99166.93;1596971;88;21139;-81
2021/05/13 01:00:00;;;;;;;3.37;1.50;;;;;;;17.85;43.46;99165.86;1570744;89;21168;-82
2021/05/13 01:02:27;;;;;;;4.90;1.50;;;;;;;17.80;43.51;99165.74;1598278;88;21527;-82
2021/05/13 01:04:52;;;;;;;5.33;1.70;;;;;;;17.81;43.53;99161.52;1597932;88;21258;-82
2021/05/13 01:07:18;;;;;;;8.18;1.80;;;;;;;17.70;43.81;99156.42;1597751;88;21007;-83
2021/05/13 01:09:46;;;;;;;5.17;1.62;;;;;;;17.76;43.89;99162.72;1597779;88;20949;-82
2021/05/13 01:12:17;;;;;;;6.25;1.60;;;;;;;17.73;44.06;99165.84;1596378;88;21650;-82
2021/05/13 01:14:44;;;;;;;9.60;1.35;;;;;;;17.68;44.22;99161.69;1598024;88;21193;-82
2021/05/13 01:19:46;;;;;;;4.17;1.50;;;;;;;17.53;44.47;99157.58;1596345;88;21212;-82
2021/05/13 01:22:15;;;;;;;3.80;1.40;;;;;;;17.50;44.74;99144.69;1597732;88;21163;-82
2021/05/13 01:24:44;;;;;;;4.97;1.50;;;;;;;17.48;44.57;99149.45;1597941;88;21106;-82
2021/05/13 01:27:17;;;;;;;3.17;1.45;;;;;;;17.32;45.05;99143.39;1582473;88;21285;-82
2021/05/13 01:29:46;;;;;;;5.72;1.60;;;;;;;17.30;45.03;99140.14;1574696;89;21064;-81
2021/05/13 01:32:16;;;;;;;2.50;1.50;;;;;;;17.28;45.07;99136.36;1595775;88;21202;-82
2021/05/13 01:34:46;;;;;;;4.15;1.60;;;;;;;17.20;45.36;99137.48;1597597;88;21185;-82
2021/05/13 01:37:13;;;;;;;6.22;2.00;;;;;;;17.18;45.36;99130.73;1603655;87;21162;-80
2021/05/13 01:39:44;;;;;;;4.78;1.50;;;;;;;17.14;45.67;99125.04;1588779;88;21229;-82
2021/05/13 01:42:13;;;;;;;5.15;1.60;;;;;;;17.14;45.57;99118.38;1586767;89;21577;-80
2021/05/13 01:44:39;;;;;;;3.95;1.40;;;;;;;17.17;45.47;99115.25;1606523;87;21631;-82
2021/05/13 01:47:06;;;;;;;4.72;1.52;;;;;;;17.17;45.62;99111.25;1606418;88;21645;-81
2021/05/13 01:49:34;;;;;;;;;;;;;;;17.04;46.15;99110.08;1609839;87;21909;-81
2021/05/13 01:52:00;;;;;;;4.37;1.70;;;;;;;17.06;46.09;99102.69;1604815;88;20284;-81
2021/05/13 01:54:29;;;;;;;7.87;1.55;;;;;;;17.09;45.85;99106.23;1583499;89;21411;-81
2021/05/13 01:57:05;;;;;;;3.10;1.37;;;;;;;17.07;46.01;99094.95;1607385;87;21210;-82
2021/05/13 01:59:31;;;;;;;6.95;1.90;;;;;;;17.07;45.84;99099.48;1606243;88;21235;-85
2021/05/13 02:01:59;;;;;;;2.62;1.50;;;;;;;17.06;45.83;99092.02;1606516;87;21179;-81
2021/05/13 02:04:25;;;;;;;3.12;1.60;;;;;;;17.08;45.98;99093.93;1585677;88;21202;-81
2021/05/13 02:06:52;;;;;;;6.33;1.70;;;;;;;17.12;45.77;99098.28;1566525;89;21284;-81
2021/05/13 02:09:18;;;;;;;5.70;1.67;;;;;;;16.84;46.49;99095.11;1606730;88;21149;-82
2021/05/13 02:11:48;;;;;;;3.10;1.80;;;;;;;16.79;46.57;99086.95;1607647;87;20957;-82
2021/05/13 02:14:15;;;;;;;4.80;1.65;;;;;;;16.51;47.26;99076.31;1587198;88;21243;-81
2021/05/13 02:16:43;;;;;;;5.22;1.92;;;;;;;16.32;47.90;99078.65;1604569;88;21108;-81
2021/05/13 02:19:10;;;;;;;;;;;;;;;16.36;47.91;99074.52;1608616;87;21884;-82
2021/05/13 02:21:39;;;;;;;3.98;1.35;;;;;;;16.22;48.32;99073.00;1606716;87;20217;-81
2021/05/13 02:24:05;;;;;;;;;;;;;;;16.23;48.26;99069.31;1609313;88;21592;-83
2021/05/13 02:26:33;;;;;;;13.20;1.63;;;;;;;16.15;48.56;99065.89;1605785;88;20266;-81
2021/05/13 02:29:01;;;;;;;6.15;1.60;;;;;;;16.02;49.06;99066.02;1606927;88;21272;-78
2021/05/13 02:31:27;;;;;;;;;;;;;;;15.96;49.25;99062.91;1608896;88;21254;-79
2021/05/13 02:33:54;;;;;;;7.15;1.90;;;;;;;15.86;49.85;99063.90;1608943;87;20282;-79
2021/05/13 02:36:20;;;;;;;;;;;;;;;15.78;49.85;99062.32;1611565;87;21230;-80
2021/05/13 02:38:46;;;;;;;4.35;1.50;;;;;;;15.67;50.40;99055.81;1597423;88;20179;-80
2021/05/13 02:41:12;;;;;;;3.33;1.52;;;;;;;15.56;50.54;99059.19;1597563;88;20996;-79
2021/05/13 02:43:39;;;;;;;2.60;1.32;;;;;;;15.43;50.93;99055.58;1597448;88;21373;-81
2021/05/13 02:46:06;;;;;;;;;;;;;;;15.38;50.92;99054.59;1599021;88;21150;-80
2021/05/13 02:48:37;;;;;;;6.37;1.70;;;;;;;15.42;51.15;99048.63;1598716;88;28388;-80
2021/05/13 02:51:04;;;;;;;5.70;1.57;;;;;;;15.37;50.90;99048.45;1597689;88;21088;-80
2021/05/13 02:53:33;;;;;;;4.25;1.50;;;;;;;15.42;50.97;99044.62;1598771;88;21190;-80
2021/05/13 02:55:59;;;;;;;5.55;1.65;;;;;;;15.39;51.04;99042.92;1596081;88;21653;-81
2021/05/13 02:58:25;;;;;;;3.55;1.47;;;;;;;15.37;50.95;99048.45;1597660;88;22462;-79
2021/05/13 03:01:07;;;;;;;5.35;1.40;;;;;;;15.34;51.11;99040.91;1598274;88;21714;-80
2021/05/13 03:03:27;;;;;;;7.28;1.50;;;;;;;15.19;51.95;99038.53;1595690;88;22017;-81
2021/05/13 03:05:54;;;;;;;6.55;1.70;;;;;;;15.16;52.12;99040.81;1604703;87;21206;-81
2021/05/13 03:08:20;;;;;;;5.72;1.75;;;;;;;15.13;52.17;99038.58;1594582;88;21898;-82
2021/05/13 03:10:51;;;;;;;7.45;1.70;;;;;;;15.05;52.14;99019.17;1561918;88;21141;-81
2021/05/13 03:13:26;;;;;;;6.62;1.90;;;;;;;15.14;52.19;99036.23;1597749;88;21598;-82
2021/05/13 03:15:55;;;;;;;5.05;1.72;;;;;;;15.25;51.96;99031.55;1597401;88;21221;-82
2021/05/13 03:18:27;;;;;;;6.62;1.95;;;;;;;15.40;51.54;99017.44;1595537;88;21238;-81
2021/05/13 03:21:03;;;;;;;7.25;1.98;;;;;;;15.54;51.12;99021.34;1597512;88;21155;-81
2021/05/13 03:23:24;;;;;;;5.10;1.72;;;;;;;15.77;50.63;99021.59;1590683;88;21011;-81
2021/05/13 03:25:56;;;;;;;6.15;1.80;;;;;;;15.67;50.89;99025.21;1581925;89;21138;-81
2021/05/13 03:28:18;;;;;;;4.70;1.70;;;;;;;15.77;50.59;99021.59;1596984;88;21019;-83
2021/05/13 03:30:49;;;;;;;6.30;1.50;;;;;;;15.89;50.12;99015.55;1598391;88;21145;-81
2021/05/13 03:33:17;;;;;;;4.25;1.50;;;;;;;16.00;50.01;99018.00;1596845;88;22031;-81
2021/05/13 03:35:47;;;;;;;2.58;1.60;;;;;;;15.92;50.18;99015.10;1594218;88;21165;-81
2021/05/13 03:38:14;;;;;;;7.45;1.52;;;;;;;15.82;50.58;99017.44;1606405;87;21236;-83
2021/05/13 03:40:43;;;;;;;4.78;1.60;;;;;;;16.00;50.19;99012.15;1614372;87;26758;-82
2021/05/13 03:43:12;;;;;;;4.60;1.60;;;;;;;15.87;50.51;99017.09;1617962;87;21195;-81
2021/05/13 03:45:42;;;;;;;7.50;1.90;;;;;;;15.78;50.71;99012.58;1585752;87;22519;-80
2021/05/13 03:48:08;;;;;;;6.30;1.82;;;;;;;15.74;50.85;99006.02;1593571;88;21729;-82
2021/05/13 03:50:36;;;;;;;4.37;1.70;;;;;;;15.70;51.11;98999.49;1614651;87;21167;-81
2021/05/13 03:53:06;;;;;;;7.30;1.80;;;;;;;15.79;50.61;98995.55;1593005;88;21273;-81
2021/05/13 03:55:36;;;;;;;5.47;1.80;;;;;;;15.71;50.91;98992.34;1611958;87;21240;-82
2021/05/13 03:58:06;;;;;;;2.80;1.75;;;;;;;15.82;50.68;98993.48;1611878;87;21945;-81
2021/05/13 04:00:45;;;;;;;4.70;2.02;;;;;;;15.83;50.66;98997.78;1614107;88;21178;-83
2021/05/13 04:03:13;;;;;;;3.33;1.80;;;;;;;15.80;50.74;98997.72;1609973;87;21580;-80
2021/05/13 04:05:41;;;;;;;4.33;2.00;;;;;;;15.82;50.71;98990.81;1612882;87;21129;-81
2021/05/13 04:08:12;;;;;;;6.53;1.70;;;;;;;15.91;50.55;99000.98;1612525;87;21596;-84
2021/05/13 04:10:41;;;;;;;5.80;1.65;;;;;;;15.90;50.71;98995.87;1613271;88;21934;-79
2021/05/13 04:13:10;;;;;;;5.45;1.77;;;;;;;15.93;50.52;99001.58;1612776;87;21124;-80
2021/05/13 04:15:44;;;;;;;4.83;1.95;;;;;;;16.08;50.28;99011.89;1591191;88;21199;-80
2021/05/13 04:18:08;;;;;;;5.33;1.90;;;;;;;15.87;50.82;99000.31;1613316;88;21169;-79
2021/05/13 04:20:40;;;;;;;7.00;1.70;;;;;;;15.95;50.92;99001.35;1594199;88;21099;-80
2021/05/13 04:23:08;;;;;;;3.77;1.70;;;;;;;15.92;51.04;99005.26;1612907;87;21189;-81
2021/05/13 04:25:33;;;;;;;2.77;1.70;;;;;;;15.89;51.04;99008.89;1614027;88;21227;-81
2021/05/13 04:28:02;;;;;;;4.10;1.92;;;;;;;16.10;50.54;98999.69;1611603;87;21166;-81
2021/05/13 04:30:31;;;;;;;8.55;1.80;;;;;;;16.10;50.44;98999.16;1613903;87;21152;-81
2021/05/13 04:32:58;;;;;;;4.12;1.72;;;;;;;16.19;50.36;99000.19;1613846;87;21121;-82
2021/05/13 04:35:26;;;;;;;;;;;;;;;16.35;49.86;98994.28;1616539;88;22037;-80
2021/05/13 04:37:51;;;;;;;5.62;1.90;;;;;;;16.56;49.49;98986.86;1611701;88;20534;-81
2021/05/13 04:40:20;;;;;;;5.25;1.77;;;;;;;16.47;49.41;98985.04;1600677;88;22032;-81
2021/05/13 04:42:47;;;;;;;3.60;1.90;;;;;;;16.42;49.27;98977.72;1596428;88;21135;-81
2021/05/13 04:45:13;;;;;;;8.50;1.90;;;;;;;16.65;48.69;98970.86;1583355;88;21278;-82
2021/05/13 04:48:03;;;;;;;5.33;2.10;;;;;;;16.72;48.51;98966.27;1597685;88;22089;-82
2021/05/13 04:50:13;;;;;;;4.42;1.80;;;;;;;16.80;48.14;98961.94;1577231;89;21079;-81
2021/05/13 04:52:39;;;;;;;4.92;1.70;;;;;;;16.93;47.94;98969.50;1598549;88;21259;-82
2021/05/13 04:55:10;;;;;;;5.20;1.75;;;;;;;16.91;47.67;98963.05;1583318;89;21272;-81
2021/05/13 04:57:36;;;;;;;6.78;1.50;;;;;;;16.97;47.48;98960.02;1596892;88;21181;-81
2021/05/13 05:00:08;;;;;;;4.55;1.77;;;;;;;16.99;47.39;98963.26;1597847;88;21772;-82
2021/05/13 05:02:36;;;;;;;3.22;1.62;;;;;;;16.94;47.39;98955.94;1593978;88;21025;-82
2021/05/13 05:05:05;;;;;;;6.67;1.90;;;;;;;17.05;47.11;98959.68;1596104;88;21193;-81
2021/05/13 05:07:34;;;;;;;5.83;2.05;;;;;;;17.13;47.07;98955.88;1582026;89;21201;-82
2021/05/13 05:10:08;;;;;;;4.22;1.62;;;;;;;17.19;46.83;98954.42;1592887;88;21233;-84
2021/05/13 05:12:35;;;;;;;6.75;2.12;;;;;;;17.23;46.88;98956.94;1597407;87;21653;-81
2021/05/13 05:15:08;;;;;;;5.58;2.10;;;;;;;17.34;46.75;98946.00;1597274;88;21197;-81
2021/05/13 05:17:35;;;;;;;3.62;1.80;;;;;;;17.36;46.76;98941.77;1596104;88;21141;-82
2021/05/13 05:20:02;;;;;;;4.12;1.55;;;;;;;17.52;46.36;98940.27;1597457;89;21173;-83
2021/05/13 05:22:28;;;;;;;6.17;1.70;;;;;;;17.52;46.38;98941.06;1595179;88;21968;-80
2021/05/13 05:24:58;;;;;;;6.33;1.60;;;;;;;17.66;46.39;98935.51;1580987;89;21623;-79
2021/05/13 05:27:23;;;;;;;5.45;2.00;;;;;;;17.62;46.15;98937.01;1591594;88;21156;-80
2021/05/13 05:29:50;;;;;;;2.87;1.70;;;;;;;17.67;45.74;98938.48;1564003;88;20964;-80
2021/05/13 05:32:17;;;;;;;4.12;1.70;;;;;;;17.52;45.95;98929.05;1575867;85;44960;-80
2021/05/13 05:34:43;;;;;;;4.67;1.92;;;;;;;17.73;45.74;98929.54;1580968;88;21610;-79
2021/05/13 05:37:14;;;;;;;4.60;1.70;;;;;;;17.83;45.54;98926.27;1584697;89;22891;-79
2021/05/13 05:39:41;;;;;;;5.42;1.87;;;;;;;17.86;45.49;98925.27;1545623;89;21696;-80
2021/05/13 05:42:13;;;;;;;4.62;2.00;;;;;;;17.98;45.26;98922.62;1573064;89;21170;-79
2021/05/13 05:44:47;;;;;;;4.28;1.60;;;;;;;17.99;45.15;98920.77;1596258;87;21160;-82
2021/05/13 05:47:17;;;;;;;5.33;1.72;;;;;;;18.08;45.19;98920.69;1597858;87;21159;-79
2021/05/13 05:49:43;;;;;;;2.65;1.60;;;;;;;18.23;44.93;98926.34;1598366;88;21709;-81
2021/05/13 05:52:11;;;;;;;5.30;1.70;;;;;;;18.29;44.68;98921.39;1597587;88;21208;-81
2021/05/13 05:54:40;;;;;;;4.37;2.08;;;;;;;18.30;44.60;98929.70;1598597;88;26870;-80
2021/05/13 05:57:08;;;;;;;2.85;1.40;;;;;;;18.12;44.27;98927.20;1589821;88;21618;-82
2021/05/13 05:59:34;;;;;;;5.20;1.67;;;;;;;18.26;44.35;98919.19;1600365;89;21671;-78
2021/05/13 06:02:02;;;;;;;4.20;1.62;;;;;;;18.30;44.12;98919.02;1600452;87;22140;-80
2021/05/13 06:04:27;;;;;;;6.05;1.60;;;;;;;18.44;44.05;98914.71;1593316;88;21696;-81
2021/05/13 06:06:54;;;;;;;2.92;1.62;;;;;;;18.45;43.88;98919.02;1598251;88;21718;-79
2021/05/13 06:09:22;;;;;;;7.25;1.95;;;;;;;18.49;43.78;98916.17;1597428;88;21279;-78
2021/05/13 06:11:49;;;;;;;6.00;1.52;;;;;;;18.50;43.71;98918.30;1598508;87;21165;-80
2021/05/13 06:14:15;;;;;;;;;;;;;;;18.62;43.51;98921.20;1598956;88;21230;-82
2021/05/13 06:16:47;;;;;;;4.85;1.72;;;;;;;18.52;43.40;98917.03;1597792;89;20302;-82
2021/05/13 06:19:20;;;;;;;4.62;1.60;;;;;;;18.66;43.46;98919.69;1571463;89;21053;-79
2021/05/13 06:21:46;;;;;;;3.83;1.60;;;;;;;18.75;43.55;98920.63;1595782;89;21934;-77
2021/05/13 06:24:14;;;;;;;5.55;1.55;;;;;;;18.74;43.13;98919.83;1597860;88;21678;-77
2021/05/13 06:26:40;;;;;;;5.47;1.80;;;;;;;18.60;43.54;98920.65;1590662;88;21200;-81
2021/05/13 06:29:10;;;;;;;6.00;1.60;;;;;;;18.79;43.46;98916.44;1569812;89;20950;-80
2021/05/13 06:31:39;;;;;;;9.58;1.50;;;;;;;18.80;43.60;98904.70;1589207;89;21540;-80
2021/05/13 06:34:08;;;;;;;3.98;1.72;;;;;;;18.84;43.87;98908.49;1598365;88;21137;-82
2021/05/13 06:36:35;;;;;;;6.33;1.67;;;;;;;18.85;43.77;98906.14;1593935;87;21175;-79
2021/05/13 06:39:01;;;;;;;4.62;1.50;;;;;;;18.82;43.44;98899.91;1582643;86;21192;-84
2021/05/13 06:41:30;;;;;;;6.60;1.67;;;;;;;18.85;43.35;98894.11;1627605;85;21223;-85
2021/05/13 06:43:58;;;;;;;7.15;1.60;;;;;;;18.99;43.21;98898.09;1633868;86;21006;-84
2021/05/13 06:46:25;;;;;;;7.28;1.70;;;;;;;19.18;42.86;98900.53;1617729;86;21251;-83
2021/05/13 06:48:51;;;;;;;9.78;2.02;;;;;;;19.33;42.76;98892.73;1630130;86;21204;-83
2021/05/13 06:51:21;;;;;;;4.65;1.70;;;;;;;19.14;42.85;98884.66;1622786;86;21263;-83
2021/05/13 06:53:50;;;;;;;5.12;1.75;;;;;;;19.24;43.00;98882.16;1638298;86;21168;-84
2021/05/13 06:56:19;;;;;;;5.60;1.60;;;;;;;19.19;43.12;98877.54;1631406;86;21559;-80
2021/05/13 06:58:45;;;;;;;3.87;1.85;;;;;;;19.42;42.69;98881.61;1630973;86;21132;-83
2021/05/13 07:01:16;;;;;;;7.22;1.60;;;;;;;19.41;42.49;98878.67;1636809;86;21239;-82
2021/05/13 07:03:42;;;;;;;3.42;1.42;;;;;;;19.61;42.27;98878.95;1634145;86;21272;-82
2021/05/13 07:06:08;;;;;;;5.35;1.80;;;;;;;19.67;41.88;98877.13;1622879;86;21034;-82
2021/05/13 07:08:36;;;;;;;5.10;1.80;;;;;;;19.57;42.25;98879.15;1624089;86;21068;-82
2021/05/13 07:11:03;;;;;;;8.35;2.00;;;;;;;19.72;42.00;98874.00;1622109;86;21275;-83
2021/05/13 07:13:31;;;;;;;6.67;1.60;;;;;;;19.78;41.73;98872.75;1629885;86;21208;-84
2021/05/13 07:15:57;;;;;;;3.95;1.47;;;;;;;19.66;41.56;98866.95;1632097;86;21154;-84
2021/05/13 07:18:25;;;;;;;4.17;1.60;;;;;;;19.65;41.35;98860.52;1631404;86;20982;-82
2021/05/13 07:20:51;;;;;;;7.80;1.50;;;;;;;19.78;41.23;98856.69;1604142;86;21201;-83
2021/05/13 07:23:18;;;;;;;5.80;1.30;;;;;;;19.70;41.54;98865.42;1615676;86;21099;-84
2021/05/13 07:25:52;;;;;;;3.83;1.32;;;;;;;19.72;40.75;98867.31;1628058;86;21639;-83
2021/05/13 07:28:18;;;;;;;4.55;1.40;;;;;;;19.85;40.41;98862.67;1629866;85;21200;-83
2021/05/13 07:30:47;;;;;;;3.25;1.30;;;;;;;19.94;40.45;98863.87;1632836;86;21120;-83
2021/05/13 07:33:14;;;;;;;2.87;1.55;;;;;;;19.96;40.11;98867.09;1632945;86;21029;-82
2021/05/13 07:35:43;;;;;;;4.45;1.62;;;;;;;19.90;39.89;98865.41;1627235;86;20962;-83
2021/05/13 07:38:14;;;;;;;3.50;1.35;;;;;;;20.04;39.93;98864.00;1619091;86;21183;-83
2021/05/13 07:40:40;;;;;;;2.70;1.25;;;;;;;19.97;39.93;98864.70;1629241;86;21113;-82
2021/05/13 07:43:08;;;;;;;5.80;1.40;;;;;;;20.16;39.83;98865.73;1628242;86;20978;-86
2021/05/13 07:45:40;;;;;;;4.97;1.40;;;;;;;20.19;39.94;98861.21;1641102;85;20986;-83
2021/05/13 07:48:06;;;;;;;3.25;1.37;;;;;;;20.12;39.50;98859.23;1605536;86;21184;-81
2021/05/13 07:50:33;;;;;;;3.17;1.40;;;;;;;20.16;39.39;98860.38;1626589;86;21145;-81
2021/05/13 07:53:02;;;;;;;5.67;1.80;;;;;;;20.40;39.20;98860.37;1634906;86;21226;-79
2021/05/13 07:55:34;;;;;;;6.00;1.80;;;;;;;20.48;39.27;98855.59;1627942;86;21022;-81
2021/05/13 07:58:05;;;;;;;6.40;1.60;;;;;;;20.54;39.20;98854.58;1600623;86;21160;-82
2021/05/13 08:00:35;;;;;;;2.58;1.30;;;;;;;20.53;38.88;98850.30;1603008;86;21135;-82
2021/05/13 08:03:06;;;;;;;5.83;1.32;;;;;;;20.62;38.44;98846.09;1602773;86;21208;-84
2021/05/13 08:05:33;;;;;;;2.83;1.50;;;;;;;20.71;38.29;98845.95;1634724;86;21184;-84
2021/05/13 08:07:58;;;;;;;3.92;1.30;;;;;;;20.84;38.38;98845.25;1624387;86;21116;-82
2021/05/13 08:10:24;;;;;;;3.08;1.10;;;;;;;20.85;37.94;98845.50;1627556;86;20962;-81
2021/05/13 08:12:53;;;;;;;3.98;1.55;;;;;;;20.88;37.30;98840.97;1630477;85;21053;-82
2021/05/13 08:15:21;;;;;;;5.12;1.65;;;;;;;20.83;37.54;98834.23;1633989;86;21156;-80
2021/05/13 08:17:51;;;;;;;5.80;1.32;;;;;;;20.87;37.68;98834.00;1644512;85;22043;-80
2021/05/13 08:20:19;;;;;;;2.87;1.20;;;;;;;20.94;37.86;98835.92;1635643;86;21181;-83
2021/05/13 08:22:53;;;;;;;2.77;1.20;;;;;;;20.99;37.12;98826.59;1617055;86;21117;-89
2021/05/13 08:25:20;;;;;;;2.98;1.40;;;;;;;21.08;37.17;98825.55;1641899;86;21121;-82
2021/05/13 08:27:51;;;;;;;2.92;1.45;;;;;;;21.08;37.11;98829.04;1606775;86;21136;-85
2021/05/13 08:30:19;;;;;;;1.90;1.17;;;;;;;21.09;37.00;98827.19;1635388;86;21464;-85
2021/05/13 08:32:48;;;;;;;2.37;1.22;;;;;;;21.02;36.57;98830.09;1625364;86;21022;-84
2021/05/13 08:35:16;;;;;;;3.08;1.40;;;;;;;20.94;36.89;98822.50;1640102;86;21200;-84
2021/05/13 08:37:46;;;;;;;4.37;1.20;;;;;;;21.06;36.47;98817.76;1633175;86;21124;-86
2021/05/13 08:40:15;;;;;;;3.27;1.20;;;;;;;21.12;36.30;98818.07;1637417;86;21148;-83
2021/05/13 08:42:42;;;;;;;3.85;1.40;;;;;;;21.02;36.08;98820.70;1642956;86;21254;-83
2021/05/13 08:45:09;;;;;;;2.50;1.10;;;;;;;21.10;35.41;98816.19;1637635;85;21188;-83
2021/05/13 08:47:41;;;;;;;3.50;1.23;;;;;;;21.18;35.59;98820.78;1612667;85;21156;-83
2021/05/13 08:50:09;;;;;;;3.95;1.50;;;;;;;21.21;35.38;98813.55;1614892;86;21172;-84
2021/05/13 08:52:39;;;;;;;5.17;1.32;;;;;;;21.32;35.30;98816.59;1638828;86;21196;-85
2021/05/13 08:55:11;;;;;;;2.50;1.12;;;;;;;21.44;34.94;98809.14;1641876;85;21890;-82
2021/05/13 08:57:40;;;;;;;2.60;1.27;;;;;;;21.41;34.67;98811.01;1641171;86;21032;-84
2021/05/13 09:01:24;;;;;;;4.28;1.22;;;;;;;21.49;34.86;98803.82;1633123;86;32597;-83
2021/05/13 09:03:53;;;;;;;3.98;1.40;;;;;;;21.57;35.04;98796.34;1642698;86;21626;-84
2021/05/13 09:06:33;;;;;;;3.83;1.27;;;;;;;21.57;35.25;98799.83;1606406;86;21127;-87
2021/05/13 09:09:17;;;;;;;5.95;1.25;;;;;;;21.72;34.63;98800.44;1634534;86;21210;-88
2021/05/13 09:11:57;;;;;;;2.77;1.10;;;;;;;21.93;34.72;98801.30;1641215;86;21238;-84
2021/05/13 09:14:33;;;;;;;3.58;1.20;;;;;;;22.04;34.43;98799.45;1636047;86;21669;-84
2021/05/13 09:17:02;;;;;;;2.70;1.10;;;;;;;21.96;34.14;98795.95;1630225;86;22088;-84
2021/05/13 09:19:34;;;;;;;3.40;1.10;;;;;;;22.11;34.09;98794.64;1635929;85;21155;-84
2021/05/13 09:22:07;;;;;;;3.60;1.00;;;;;;;22.22;33.35;98793.58;1635900;86;21212;-84
2021/05/13 09:24:46;;;;;;;3.17;1.00;;;;;;;22.21;33.07;98794.64;1638105;86;21200;-85
2021/05/13 09:27:26;;;;;;;3.05;1.02;;;;;;;22.16;33.29;98793.30;1604741;86;21163;-83
2021/05/13 09:30:23;;;;;;;3.10;1.17;;;;;;;22.22;33.67;98785.52;1631967;86;21662;-85
2021/05/13 09:33:01;;;;;;;4.75;1.10;;;;;;;22.21;33.86;98784.44;1635601;86;21165;-85
2021/05/13 09:35:34;;;;;;;5.35;1.40;;;;;;;22.21;33.60;98785.23;1636416;86;21367;-84
2021/05/13 09:38:07;;;;;;;4.42;1.45;;;;;;;22.13;33.30;98781.73;1603628;86;21241;-83
2021/05/13 09:40:50;;;;;;;2.33;1.10;;;;;;;22.03;32.77;98781.19;1628393;86;21207;-88
2021/05/13 09:43:26;;;;;;;1.85;1.10;;;;;;;22.14;32.96;98775.30;1628292;86;21070;-84
2021/05/13 09:46:00;;;;;;;3.72;1.30;;;;;;;22.00;33.35;98772.82;1620324;86;21664;-85
2021/05/13 09:48:46;;;;;;;1.87;1.20;;;;;;;22.09;33.35;98771.23;1623663;86;21054;-87
2021/05/13 09:51:38;;;;;;;4.28;1.20;;;;;;;22.09;32.83;98767.20;1627297;86;21078;-84
2021/05/13 09:54:18;;;;;;;1.65;0.95;;;;;;;22.05;32.68;98764.78;1606301;86;21220;-83
2021/05/13 09:56:48;;;;;;;3.20;1.27;;;;;;;22.13;32.86;98761.57;1619400;86;21187;-86
2021/05/13 09:59:35;;;;;;;3.72;1.30;;;;;;;22.20;33.60;98751.37;1622534;86;21189;-83
2021/05/13 10:02:07;;;;;;;4.30;1.32;;;;;;;22.11;33.42;98752.97;1626237;86;21236;-86
2021/05/13 10:04:41;;;;;;;5.12;1.30;;;;;;;22.12;33.47;98746.50;1616161;86;21295;-83
2021/05/13 10:07:09;;;;;;;1.90;1.10;;;;;;;22.22;33.57;98743.83;1612952;86;21212;-84
2021/05/13 10:09:39;;;;;;;4.85;1.30;;;;;;;22.15;33.51;98735.21;1621094;86;21149;-82
2021/05/13 10:12:14;;;;;;;2.33;1.00;;;;;;;22.19;32.98;98738.99;1626277;86;21169;-83
2021/05/13 10:14:42;;;;;;;4.50;1.07;;;;;;;22.11;32.65;98727.43;1621233;86;21575;-84
2021/05/13 10:17:14;;;;;;;3.65;1.07;;;;;;;22.19;32.77;98728.23;1616866;86;21143;-83
2021/05/13 10:19:49;;;;;;;5.05;1.35;;;;;;;22.52;32.78;98728.80;1599233;86;21832;-83
2021/05/13 10:22:21;;;;;;;4.75;1.40;;;;;;;22.68;32.48;98728.80;1592190;86;21177;-84
2021/05/13 10:25:11;;;;;;;6.80;1.20;;;;;;;22.75;32.51;98721.27;1629975;86;20967;-83
2021/05/13 10:27:40;;;;;;;2.00;0.93;;;;;;;22.77;31.87;98729.31;1628294;86;21986;-83
2021/05/13 10:30:14;;;;;;;3.12;1.20;;;;;;;22.78;31.76;98720.72;1616680;86;21164;-82
2021/05/13 10:32:39;;;;;;;2.70;1.12;;;;;;;22.85;31.74;98721.22;1597798;86;21195;-82
2021/05/13 10:35:14;;;;;;;4.20;1.30;;;;;;;22.87;31.19;98715.05;1626712;86;20939;-78
2021/05/13 10:37:50;;;;;;;2.05;1.07;;;;;;;23.04;31.77;98716.09;1618705;86;21203;-83
2021/05/13 10:40:43;;;;;;;3.60;1.12;;;;;;;23.07;31.32;98709.33;1605202;86;21136;-83
2021/05/13 10:43:08;;;;;;;4.42;1.30;;;;;;;23.16;31.03;98710.41;1605738;88;21026;-82
2021/05/13 10:45:42;;;;;;;2.92;1.10;;;;;;;22.92;30.86;98700.22;1580534;88;21225;-83
2021/05/13 10:48:30;;;;;;;2.55;1.10;;;;;;;22.85;31.41;98699.69;1585545;88;21169;-81
2021/05/13 10:51:07;;;;;;;2.70;1.17;;;;;;;22.93;31.47;98695.12;1607379;88;21097;-83
2021/05/13 10:53:44;;;;;;;3.72;1.17;;;;;;;23.18;31.20;98691.28;1602483;88;21290;-85
2021/05/13 10:56:32;;;;;;;4.03;1.20;;;;;;;23.12;30.77;98689.17;1610729;88;21129;-86
2021/05/13 10:59:16;;;;;;;2.83;1.10;;;;;;;23.26;30.94;98693.43;1613130;88;21042;-85
2021/05/13 11:01:48;;;;;;;4.92;1.47;;;;;;;23.29;31.22;98698.27;1585411;87;21219;-85
2021/05/13 11:04:29;;;;;;;4.03;1.30;;;;;;;23.09;30.79;98703.19;1605685;88;21189;-84
2021/05/13 11:07:06;;;;;;;6.47;1.30;;;;;;;23.08;31.18;98696.14;1605999;87;21576;-82
2021/05/13 11:09:49;;;;;;;3.27;1.65;;;;;;;23.09;30.94;98691.06;1606650;87;21189;-85
2021/05/13 11:12:23;;;;;;;4.22;1.27;;;;;;;23.09;31.14;98691.06;1612493;87;21027;-81
2021/05/13 11:17:58;;;;;;;3.70;1.07;;;;;;;23.20;30.79;98687.25;1600573;88;21118;-83
2021/05/13 11:20:28;;;;;;;4.22;1.12;;;;;;;23.18;30.35;98680.52;1602184;88;21214;-82
2021/05/13 11:23:19;;;;;;;6.08;1.40;;;;;;;23.28;29.91;98679.93;1606267;87;21651;-83
2021/05/13 11:25:56;;;;;;;2.92;1.25;;;;;;;23.43;30.43;98676.89;1575695;88;21583;-82
2021/05/13 11:28:38;;;;;;;3.35;1.20;;;;;;;23.55;30.39;98680.06;1601948;87;21180;-82
2021/05/13 11:31:10;;;;;;;4.40;1.00;;;;;;;23.43;29.82;98674.20;1574465;88;21245;-81
2021/05/13 11:33:52;;;;;;;5.00;1.45;;;;;;;23.61;30.03;98672.22;1602340;87;21314;-81
2021/05/13 11:36:28;;;;;;;4.87;1.40;;;;;;;23.54;29.78;98670.39;1602046;88;21168;-81
2021/05/13 11:39:06;;;;;;;3.65;1.30;;;;;;;23.70;29.90;98664.91;1580264;88;21188;-82
2021/05/13 11:41:34;;;;;;;2.42;1.30;;;;;;;23.75;29.94;98664.87;1624830;86;21112;-81
2021/05/13 11:43:59;;;;;;;4.00;1.22;;;;;;;23.77;29.59;98663.52;1645247;86;21149;-83
2021/05/13 11:46:30;;;;;;;2.00;1.20;;;;;;;23.69;29.36;98657.90;1645301;86;22017;-82
2021/05/13 11:48:58;;;;;;;3.90;1.30;;;;;;;23.79;29.98;98652.45;1634596;86;21180;-83
2021/05/13 11:51:29;;;;;;;2.40;1.47;;;;;;;23.80;29.99;98651.34;1635401;86;21045;-84
2021/05/13 11:54:05;;;;;;;2.67;1.30;;;;;;;23.94;29.70;98659.11;1635159;86;21152;-84